Woodstock, Maryland
Current Conditions -  °F | °C
As of 1:54 PM on Thursday 30 Oct 2014 (Local Time) from KBWI Reporting Station
Broken Clouds Broken Clouds  
Wind Chill: 57°   Ceiling: 6000
Heat Index: 57°   Visibility: 10mi
Dew Point: 38°   Wind: 9mph
Humidity: 49%   Direction: 300°WNW
Pressure: 30.02"   Gusts: NA
Location:  39.33°N, 76.87°W
Report Text: KBWI 301754Z 30008KT 10SM SCT044 BKN060 14/03 A3002 RMK AO2 SLP166 60000 T01390033 10156 20067 58014
Loading
Personal Weather Stations






























Interactive Weather Map
Tropical Storm Tracking
New forecast layout! Learn more

10-Day Weather Forecast

Advertisements
Track Severe Weather on mobile